Time;durP1;ratioP1;P1;durP2;ratioP2;P2;SDS_P1;SDS_P2;PMS_P1;PMS_P2;Temp;Humidity;BMP_temperature;BMP_pressure;BME280_temperature;BME280_humidity;BME280_pressure;Samples;Min_cycle;Max_cycle;Signal;HPM_P1;HPM_P2
2023/08/23 00:01:59;;;;;;;9.98;8.90;;;19.70;99.90;;;;;;5055120;28;20254;-77
2023/08/23 00:04:26;;;;;;;10.70;9.18;;;19.80;99.90;;;;;;5054971;28;20251;-77
2023/08/23 00:06:53;;;;;;;9.55;8.65;;;19.80;99.90;;;;;;5054934;28;20198;-77
2023/08/23 00:09:21;;;;;;;11.38;9.35;;;19.90;99.90;;;;;;5054825;28;20197;-77
2023/08/23 00:11:47;;;;;;;11.38;9.68;;;19.90;99.90;;;;;;5054999;28;20202;-77
2023/08/23 00:14:14;;;;;;;13.75;10.15;;;19.80;99.90;;;;;;5054919;28;20198;-77
2023/08/23 00:16:41;;;;;;;11.93;9.52;;;19.90;99.90;;;;;;5054734;28;20283;-77
2023/08/23 00:19:07;;;;;;;10.38;9.38;;;19.80;99.90;;;;;;5054676;28;20201;-77
2023/08/23 00:21:34;;;;;;;11.35;9.90;;;19.80;99.90;;;;;;5054566;28;20252;-78
2023/08/23 00:24:00;;;;;;;11.07;10.07;;;19.80;99.90;;;;;;5054866;28;20194;-78
2023/08/23 00:26:29;;;;;;;10.55;9.55;;;19.60;99.90;;;;;;5054502;28;20276;-77
2023/08/23 00:28:56;;;;;;;13.98;10.90;;;19.50;99.90;;;;;;5054651;28;20293;-77
2023/08/23 00:31:23;;;;;;;11.57;10.57;;;19.30;99.90;;;;;;5054444;28;20796;-77
2023/08/23 00:33:50;;;;;;;12.38;10.25;;;19.20;99.90;;;;;;5054453;28;20252;-77
2023/08/23 00:36:16;;;;;;;12.30;11.02;;;19.10;99.90;;;;;;5054545;28;20966;-77
2023/08/23 00:38:43;;;;;;;11.43;10.23;;;19.10;99.90;;;;;;5054520;28;20252;-78
2023/08/23 00:41:10;;;;;;;11.98;10.77;;;19.30;99.90;;;;;;5054145;28;20240;-77
2023/08/23 00:43:38;;;;;;;11.15;9.95;;;19.40;99.90;;;;;;5054120;28;20231;-77
2023/08/23 00:46:05;;;;;;;11.18;9.95;;;19.40;99.90;;;;;;5054301;28;20264;-77
2023/08/23 00:48:32;;;;;;;11.40;10.40;;;19.30;99.90;;;;;;5054102;28;20201;-76
2023/08/23 00:50:59;;;;;;;11.45;9.57;;;19.30;99.90;;;;;;5054116;28;20657;-77
2023/08/23 00:53:26;;;;;;;11.88;10.68;;;19.20;99.90;;;;;;5054209;28;20255;-76
2023/08/23 00:55:53;;;;;;;11.90;9.77;;;19.30;99.90;;;;;;5053833;28;20240;-77
2023/08/23 00:58:20;;;;;;;11.38;10.32;;;19.40;99.90;;;;;;5054089;28;20259;-76
2023/08/23 01:00:48;;;;;;;10.90;9.90;;;19.30;99.90;;;;;;5053939;28;20194;-77
2023/08/23 01:03:15;;;;;;;10.15;9.25;;;19.10;99.90;;;;;;5053770;28;20202;-78
2023/08/23 01:05:50;;;;;;;9.82;8.98;;;19.00;99.90;;;;;;5054085;28;20202;-78
2023/08/23 01:08:25;;;;;;;10.80;9.05;;;18.90;99.90;;;;;;5053985;28;20197;-77
2023/08/23 01:10:55;;;;;;;9.82;8.93;;;19.00;99.90;;;;;;5053963;28;20612;-78
2023/08/23 01:13:28;;;;;;;11.90;9.13;;;18.90;99.90;;;;;;5053985;28;20201;-77
2023/08/23 01:15:58;;;;;;;15.35;10.35;;;18.80;99.90;;;;;;5053546;28;20270;-77
2023/08/23 01:18:27;;;;;;;11.98;10.48;;;18.80;99.90;;;;;;5053696;28;20198;-77
2023/08/23 01:20:54;;;;;;;12.93;10.13;;;18.70;99.90;;;;;;5053558;28;20251;-78
2023/08/23 01:23:24;;;;;;;12.30;10.43;;;18.60;99.90;;;;;;5053531;28;20275;-77
2023/08/23 01:25:52;;;;;;;11.50;10.43;;;18.60;99.90;;;;;;5053424;28;20717;-77
2023/08/23 01:28:20;;;;;;;11.52;10.30;;;18.70;99.90;;;;;;5053316;28;20202;-77
2023/08/23 01:30:48;;;;;;;11.60;10.40;;;18.70;99.90;;;;;;5053503;28;20256;-77
2023/08/23 01:33:20;;;;;;;12.98;9.95;;;18.70;99.90;;;;;;5053346;28;20681;-77
2023/08/23 01:36:00;;;;;;;11.65;10.63;;;18.70;99.90;;;;;;5053349;28;20259;-77
2023/08/23 01:38:30;;;;;;;13.43;11.82;;;18.60;99.90;;;;;;5053313;28;20247;-77
2023/08/23 01:40:58;;;;;;;15.68;12.38;;;18.50;99.90;;;;;;5052966;28;20286;-77
2023/08/23 01:43:25;;;;;;;14.40;11.73;;;18.40;99.90;;;;;;5053320;28;20206;-77
2023/08/23 01:45:51;;;;;;;13.02;11.35;;;18.40;99.90;;;;;;5053273;28;20209;-77
2023/08/23 01:48:18;;;;;;;13.27;11.88;;;18.40;99.90;;;;;;5053115;28;20220;-77
2023/08/23 01:50:45;;;;;;;14.23;12.05;;;18.30;99.90;;;;;;5053033;28;20259;-77
2023/08/23 01:53:11;;;;;;;13.32;11.93;;;18.30;99.90;;;;;;5052673;28;20648;-77
2023/08/23 01:55:39;;;;;;;14.20;12.70;;;18.20;99.90;;;;;;5053208;28;20263;-77
2023/08/23 01:58:06;;;;;;;14.20;12.10;;;18.20;99.90;;;;;;5053084;28;20263;-77
2023/08/23 02:00:32;;;;;;;14.45;12.80;;;18.40;99.90;;;;;;5053267;28;20201;-78
2023/08/23 02:02:59;;;;;;;14.73;13.15;;;18.40;99.90;;;;;;5053004;28;20198;-77
2023/08/23 02:05:26;;;;;;;13.25;11.85;;;18.30;99.90;;;;;;5052934;28;20198;-78
2023/08/23 02:07:52;;;;;;;12.32;11.20;;;18.20;99.90;;;;;;5052128;28;20542;-77
2023/08/23 02:10:19;;;;;;;12.65;11.40;;;18.20;99.90;;;;;;5052698;28;20197;-77
2023/08/23 02:12:47;;;;;;;13.27;11.85;;;18.20;99.90;;;;;;5052659;28;20727;-77
2023/08/23 02:15:14;;;;;;;14.00;12.65;;;18.20;99.90;;;;;;5052796;28;20205;-77
2023/08/23 02:17:40;;;;;;;14.32;12.77;;;18.10;99.90;;;;;;5052626;28;20225;-77
2023/08/23 02:20:08;;;;;;;15.38;13.93;;;18.00;99.90;;;;;;5052522;28;20715;-77
2023/08/23 02:22:34;;;;;;;14.30;12.82;;;17.90;99.90;;;;;;5053319;28;20197;-77
2023/08/23 02:25:01;;;;;;;18.33;13.75;;;17.90;99.90;;;;;;5055725;28;20271;-77
2023/08/23 02:27:27;;;;;;;15.13;13.73;;;17.90;99.90;;;;;;5052814;28;20244;-77
2023/08/23 02:29:55;;;;;;;13.98;12.77;;;17.80;99.90;;;;;;5052682;28;20201;-77
2023/08/23 02:32:22;;;;;;;16.63;14.30;;;17.80;99.90;;;;;;5052478;28;20194;-77
2023/08/23 02:34:48;;;;;;;16.05;14.50;;;17.80;99.90;;;;;;5052346;28;20210;-77
2023/08/23 02:37:15;;;;;;;14.43;13.00;;;17.90;99.90;;;;;;5052613;28;20228;-77
2023/08/23 02:39:42;;;;;;;16.42;14.02;;;18.00;99.90;;;;;;5052583;28;20239;-77
2023/08/23 02:42:08;;;;;;;16.25;14.10;;;18.10;99.90;;;;;;5052627;28;20661;-76
2023/08/23 02:44:35;;;;;;;14.75;13.18;;;18.30;99.90;;;;;;5052294;28;20255;-77
2023/08/23 02:47:03;;;;;;;18.20;16.27;;;18.40;99.90;;;;;;5052407;28;20721;-77
2023/08/23 02:49:30;;;;;;;16.63;15.02;;;18.40;99.90;;;;;;5052236;28;20197;-77
2023/08/23 02:51:56;;;;;;;15.20;13.80;;;18.40;99.90;;;;;;5052554;28;20197;-76
2023/08/23 02:54:23;;;;;;;15.65;12.98;;;18.40;99.90;;;;;;5052580;28;20254;-76
2023/08/23 02:56:50;;;;;;;16.30;13.95;;;18.40;99.90;;;;;;5052289;28;20226;-77
2023/08/23 02:59:16;;;;;;;14.95;13.52;;;18.30;99.90;;;;;;5052465;28;20204;-77
2023/08/23 03:01:43;;;;;;;14.07;12.77;;;18.30;99.90;;;;;;5052353;28;20232;-76
2023/08/23 03:04:11;;;;;;;14.40;12.88;;;18.30;99.90;;;;;;5052174;28;20654;-77
2023/08/23 03:06:37;;;;;;;13.52;12.32;;;18.20;99.90;;;;;;5052528;28;20255;-77
2023/08/23 03:09:04;;;;;;;14.38;12.52;;;18.10;99.90;;;;;;5052299;28;20255;-77
2023/08/23 03:11:31;;;;;;;15.40;13.27;;;18.10;99.90;;;;;;5052212;28;20193;-77
2023/08/23 03:13:58;;;;;;;14.52;13.20;;;18.00;99.90;;;;;;5052057;28;20201;-77
2023/08/23 03:16:24;;;;;;;14.40;12.85;;;17.80;99.90;;;;;;5052086;28;20703;-77
2023/08/23 03:18:51;;;;;;;15.07;13.73;;;17.80;99.90;;;;;;5052700;28;20247;-77
2023/08/23 03:21:19;;;;;;;16.00;14.30;;;17.90;99.90;;;;;;5055919;28;20193;-77
2023/08/23 03:23:45;;;;;;;16.33;14.95;;;17.80;99.90;;;;;;5055992;28;20232;-77
2023/08/23 03:26:12;;;;;;;19.60;16.83;;;17.90;99.90;;;;;;5055737;28;20201;-77
2023/08/23 03:28:38;;;;;;;15.20;13.80;;;17.90;99.90;;;;;;5055665;28;20202;-77
2023/08/23 03:31:05;;;;;;;15.15;13.82;;;17.90;99.90;;;;;;5055568;28;20255;-77
2023/08/23 03:33:32;;;;;;;16.05;14.48;;;17.80;99.90;;;;;;5055275;28;20264;-77
2023/08/23 03:35:59;;;;;;;16.02;14.43;;;17.80;99.90;;;;;;5055397;28;20202;-76
2023/08/23 03:38:27;;;;;;;16.70;14.70;;;17.70;99.90;;;;;;5055569;28;20245;-77
2023/08/23 03:40:53;;;;;;;15.95;14.52;;;17.70;99.90;;;;;;5055445;28;20639;-77
2023/08/23 03:43:20;;;;;;;16.00;14.43;;;17.60;99.90;;;;;;5055423;28;20232;-77
2023/08/23 03:45:48;;;;;;;17.67;15.50;;;17.50;99.90;;;;;;5055403;28;20197;-77
2023/08/23 03:48:15;;;;;;;16.48;14.88;;;17.30;99.90;;;;;;5055537;28;20201;-77
2023/08/23 03:50:41;;;;;;;17.35;15.57;;;17.20;99.90;;;;;;5055423;28;20202;-77
2023/08/23 03:53:08;;;;;;;18.23;16.42;;;17.30;99.90;;;;;;5055105;28;20252;-77
2023/08/23 03:55:37;;;;;;;18.77;16.60;;;17.10;99.90;;;;;;5055201;28;20201;-77
2023/08/23 03:58:05;;;;;;;19.08;17.05;;;17.10;99.90;;;;;;5055124;28;20588;-75
2023/08/23 04:00:31;;;;;;;18.48;16.65;;;17.00;99.90;;;;;;5055020;28;20202;-77
2023/08/23 04:03:00;;;;;;;18.45;16.75;;;17.00;99.90;;;;;;5055101;28;20198;-75
2023/08/23 04:05:26;;;;;;;19.10;16.33;;;17.00;99.90;;;;;;5055135;28;20197;-75
2023/08/23 04:07:53;;;;;;;19.70;17.90;;;17.00;99.90;;;;;;5054878;28;20194;-77
2023/08/23 04:10:19;;;;;;;19.73;17.92;;;17.00;99.90;;;;;;5054853;28;20244;-77
2023/08/23 04:12:47;;;;;;;19.10;17.25;;;17.10;99.90;;;;;;5054686;28;20720;-76
2023/08/23 04:15:14;;;;;;;18.70;17.10;;;17.10;99.90;;;;;;5054908;28;20259;-75
2023/08/23 04:17:41;;;;;;;19.63;17.50;;;17.10;99.90;;;;;;5054728;28;20279;-75
2023/08/23 04:20:09;;;;;;;19.75;17.92;;;17.10;99.90;;;;;;5054583;28;20657;-76
2023/08/23 04:22:35;;;;;;;19.25;17.50;;;17.30;99.90;;;;;;5054752;28;20283;-76
2023/08/23 04:25:02;;;;;;;18.13;16.50;;;17.30;99.90;;;;;;5054478;28;20725;-76
2023/08/23 04:27:29;;;;;;;20.27;17.73;;;17.30;99.90;;;;;;5054205;28;20197;-76
2023/08/23 04:29:57;;;;;;;20.15;18.00;;;17.20;99.90;;;;;;5054549;28;20546;-76
2023/08/23 04:32:23;;;;;;;19.33;17.30;;;17.10;99.90;;;;;;5054047;28;20206;-75
2023/08/23 04:34:50;;;;;;;20.17;18.25;;;17.10;99.90;;;;;;5054148;28;20248;-76
2023/08/23 04:37:17;;;;;;;19.50;17.67;;;17.10;99.90;;;;;;5054215;28;20279;-75
2023/08/23 04:39:44;;;;;;;18.73;16.85;;;17.00;99.90;;;;;;5054168;28;20198;-76
2023/08/23 04:42:11;;;;;;;19.77;17.63;;;17.00;99.90;;;;;;5054342;28;20657;-76
2023/08/23 04:44:37;;;;;;;19.30;17.20;;;17.00;99.90;;;;;;5054061;28;20658;-76
2023/08/23 04:47:06;;;;;;;18.77;17.05;;;17.10;99.90;;;;;;5054233;28;20198;-75
2023/08/23 04:49:33;;;;;;;19.85;16.40;;;17.30;99.90;;;;;;5054309;28;20229;-75
2023/08/23 04:52:00;;;;;;;18.77;15.45;;;17.50;99.90;;;;;;5053933;28;20657;-76
2023/08/23 04:54:26;;;;;;;20.73;17.45;;;17.40;99.90;;;;;;5054007;28;20198;-76
2023/08/23 04:56:53;;;;;;;22.23;15.93;;;17.60;99.90;;;;;;5054086;28;20255;-75
2023/08/23 04:59:19;;;;;;;16.70;15.00;;;17.70;99.90;;;;;;5054037;28;20202;-76
2023/08/23 05:01:46;;;;;;;17.65;15.95;;;17.60;99.90;;;;;;5054044;28;20251;-76
2023/08/23 05:04:14;;;;;;;16.15;14.57;;;17.70;99.90;;;;;;5053797;28;20244;-76
2023/08/23 05:06:41;;;;;;;15.35;13.95;;;17.80;99.90;;;;;;5053745;28;20202;-76
2023/08/23 05:09:08;;;;;;;16.02;14.40;;;17.80;99.90;;;;;;5053629;28;20198;-76
2023/08/23 05:11:34;;;;;;;16.02;14.40;;;17.90;99.90;;;;;;5053670;28;20221;-76
2023/08/23 05:14:01;;;;;;;16.25;14.57;;;17.80;99.90;;;;;;5053724;28;20198;-76
2023/08/23 05:16:28;;;;;;;15.68;14.05;;;18.00;99.90;;;;;;5053531;28;20206;-75
2023/08/23 05:18:55;;;;;;;15.32;13.93;;;18.00;99.90;;;;;;5053501;28;20259;-77
2023/08/23 05:21:23;;;;;;;16.85;14.25;;;18.10;99.90;;;;;;5053528;28;20592;-76
2023/08/23 05:23:50;;;;;;;15.90;14.18;;;18.10;99.90;;;;;;5053278;28;20205;-76
2023/08/23 05:26:17;;;;;;;14.82;13.35;;;18.20;99.90;;;;;;5053313;28;20604;-76
2023/08/23 05:28:44;;;;;;;15.43;14.00;;;18.20;99.90;;;;;;5053391;28;20255;-76
2023/08/23 05:31:10;;;;;;;17.83;14.60;;;18.20;99.90;;;;;;5053233;28;20208;-76
2023/08/23 05:33:39;;;;;;;15.57;13.73;;;18.20;99.90;;;;;;5053264;28;20201;-76
2023/08/23 05:36:05;;;;;;;17.58;13.40;;;18.20;99.90;;;;;;5053305;28;20221;-76
2023/08/23 05:38:33;;;;;;;14.55;13.05;;;18.20;99.90;;;;;;5052582;28;20685;-75
2023/08/23 05:41:00;;;;;;;17.75;13.90;;;18.20;99.90;;;;;;5052890;28;20229;-76
2023/08/23 05:43:28;;;;;;;14.50;13.32;;;18.30;99.90;;;;;;5052087;28;20197;-76
2023/08/23 05:45:56;;;;;;;15.45;11.93;;;18.30;99.90;;;;;;5053187;28;20197;-77
2023/08/23 05:48:23;;;;;;;13.73;12.32;;;18.50;99.90;;;;;;5052890;28;20205;-73
2023/08/23 05:50:50;;;;;;;17.35;12.90;;;18.50;99.90;;;;;;5052801;28;20217;-72
2023/08/23 05:53:19;;;;;;;16.00;12.40;;;18.60;99.90;;;;;;5052798;28;20664;-73
2023/08/23 05:55:48;;;;;;;13.82;12.40;;;18.60;99.90;;;;;;5052987;28;20209;-73
2023/08/23 05:58:15;;;;;;;13.77;12.40;;;18.80;99.90;;;;;;5052748;28;20230;-73
2023/08/23 06:00:42;;;;;;;14.75;12.57;;;18.90;99.90;;;;;;5052848;28;20559;-73
2023/08/23 06:03:09;;;;;;;16.42;12.88;;;19.00;99.90;;;;;;5052745;28;20198;-72
2023/08/23 06:05:35;;;;;;;13.48;11.73;;;19.10;99.90;;;;;;5052440;28;20202;-73
2023/08/23 06:08:03;;;;;;;13.57;12.02;;;19.10;99.90;;;;;;5052457;28;20641;-73
2023/08/23 06:10:30;;;;;;;14.35;12.80;;;19.20;99.90;;;;;;5052728;28;20243;-73
2023/08/23 06:12:58;;;;;;;16.17;12.05;;;19.30;99.90;;;;;;5052467;28;20259;-73
2023/08/23 06:15:25;;;;;;;15.65;12.48;;;19.40;99.90;;;;;;5052484;28;20201;-73
2023/08/23 06:17:53;;;;;;;14.93;11.88;;;19.50;99.90;;;;;;5052258;28;20225;-72
2023/08/23 06:20:19;;;;;;;18.10;12.23;;;19.70;99.90;;;;;;5052778;28;20198;-74
2023/08/23 06:22:46;;;;;;;14.55;12.13;;;19.80;99.90;;;;;;5052464;28;20275;-73
2023/08/23 06:25:13;;;;;;;13.60;11.15;;;19.90;99.90;;;;;;5052446;28;20201;-73
2023/08/23 06:27:39;;;;;;;13.57;10.95;;;20.00;99.90;;;;;;5052378;28;20194;-73
2023/08/23 06:30:08;;;;;;;16.45;11.18;;;20.00;99.90;;;;;;5052131;28;20259;-73
2023/08/23 06:32:35;;;;;;;11.13;9.98;;;20.10;99.90;;;;;;5052118;28;20251;-73
2023/08/23 06:35:02;;;;;;;14.52;10.55;;;20.20;99.90;;;;;;5052685;28;20243;-73
2023/08/23 06:37:30;;;;;;;12.73;10.25;;;20.30;99.90;;;;;;5052389;28;20217;-73
2023/08/23 06:39:56;;;;;;;12.05;9.82;;;20.40;99.90;;;;;;5052363;28;20323;-74
2023/08/23 06:42:23;;;;;;;12.60;9.45;;;20.40;99.90;;;;;;5052251;28;20193;-74
2023/08/23 06:44:50;;;;;;;11.80;9.90;;;20.50;99.90;;;;;;5052229;28;20251;-74
2023/08/23 06:47:18;;;;;;;11.18;9.02;;;20.60;99.90;;;;;;5052091;28;20205;-74
2023/08/23 06:49:44;;;;;;;9.80;8.88;;;20.70;99.90;;;;;;5052209;28;20209;-74
2023/08/23 06:52:11;;;;;;;10.98;9.30;;;20.80;99.90;;;;;;5052174;28;20221;-73
2023/08/23 06:54:37;;;;;;;13.38;9.77;;;21.00;99.90;;;;;;5053882;28;20204;-74
2023/08/23 06:57:05;;;;;;;13.65;9.02;;;21.00;99.90;;;;;;5055871;28;20727;-74
2023/08/23 06:59:31;;;;;;;13.23;9.10;;;21.00;99.90;;;;;;5055908;28;20247;-74
2023/08/23 07:01:58;;;;;;;9.32;8.35;;;21.10;99.90;;;;;;5055975;28;20580;-74
2023/08/23 07:04:26;;;;;;;11.70;8.48;;;21.30;99.90;;;;;;5056189;28;20247;-74
2023/08/23 07:06:52;;;;;;;9.82;8.80;;;21.50;99.90;;;;;;5055982;28;20569;-74
2023/08/23 07:09:19;;;;;;;8.93;7.93;;;21.60;99.90;;;;;;5056075;28;20202;-74
2023/08/23 07:11:46;;;;;;;10.32;8.13;;;21.80;99.90;;;;;;5055445;28;20243;-74
2023/08/23 07:14:12;;;;;;;9.88;7.88;;;21.90;99.90;;;;;;5055616;28;20251;-74
2023/08/23 07:16:39;;;;;;;9.00;8.10;;;22.00;99.90;;;;;;5055846;28;20198;-74
2023/08/23 07:19:06;;;;;;;17.00;7.85;;;22.10;99.90;;;;;;5055913;28;20225;-74
2023/08/23 07:21:34;;;;;;;11.65;7.68;;;22.20;99.90;;;;;;5055634;28;20197;-74
2023/08/23 07:24:01;;;;;;;8.18;7.45;;;22.50;99.90;;;;;;5055513;28;20206;-74
2023/08/23 07:26:28;;;;;;;9.18;7.43;;;22.60;99.90;;;;;;5055438;28;20237;-74
2023/08/23 07:28:54;;;;;;;8.45;7.28;;;22.60;99.90;;;;;;5055383;28;20197;-74
2023/08/23 07:31:21;;;;;;;8.68;7.07;;;22.80;99.90;;;;;;5055447;28;20736;-74
2023/08/23 07:33:48;;;;;;;9.88;7.60;;;23.00;99.90;;;;;;5055574;28;20198;-73
2023/08/23 07:36:15;;;;;;;8.55;7.13;;;23.30;99.90;;;;;;5055336;28;20255;-75
2023/08/23 07:38:43;;;;;;;8.55;6.82;;;23.40;99.90;;;;;;5038980;28;20225;-75
2023/08/23 07:41:10;;;;;;;10.27;6.25;;;23.60;99.90;;;;;;5035124;28;20234;-75
2023/08/23 07:43:37;;;;;;;9.27;6.68;;;23.60;99.90;;;;;;5035830;28;20277;-74
2023/08/23 07:46:04;;;;;;;6.75;6.05;;;23.70;99.90;;;;;;5035127;28;20209;-74
2023/08/23 07:48:30;;;;;;;11.30;7.45;;;23.90;99.90;;;;;;5035330;28;20205;-74
2023/08/23 07:51:00;;;;;;;7.10;6.10;;;23.90;99.90;;;;;;5035201;28;20207;-74
2023/08/23 07:53:27;;;;;;;9.95;5.78;;;24.00;99.90;;;;;;5035227;28;20293;-74
2023/08/23 07:55:55;;;;;;;7.07;6.18;;;24.30;99.90;;;;;;5035091;28;20198;-74
2023/08/23 07:58:21;;;;;;;7.15;6.45;;;24.60;99.90;;;;;;5035140;28;20226;-74
2023/08/23 08:00:48;;;;;;;8.38;6.10;;;24.70;99.90;;;;;;5034227;28;20601;-75
2023/08/23 08:03:15;;;;;;;7.95;6.43;;;24.70;99.90;;;;;;5034993;28;20206;-74
2023/08/23 08:05:41;;;;;;;9.32;6.38;;;24.60;99.90;;;;;;5033860;28;20605;-74
2023/08/23 08:08:08;;;;;;;8.02;5.88;;;24.60;99.90;;;;;;5034861;28;20256;-74
2023/08/23 08:10:35;;;;;;;7.35;5.75;;;24.70;99.90;;;;;;5034795;28;20202;-74
2023/08/23 08:13:03;;;;;;;7.78;5.63;;;24.70;99.90;;;;;;5034550;28;20198;-74
2023/08/23 08:15:31;;;;;;;5.90;5.30;;;24.90;99.90;;;;;;5034834;28;20210;-73
2023/08/23 08:17:57;;;;;;;11.95;5.47;;;25.00;99.90;;;;;;5034551;28;20222;-74
2023/08/23 08:20:25;;;;;;;7.40;5.05;;;25.20;99.90;;;;;;5034645;28;20605;-74
2023/08/23 08:22:51;;;;;;;10.27;5.50;;;25.50;99.90;;;;;;5034287;28;20202;-73
2023/08/23 08:25:18;;;;;;;6.05;4.97;;;25.50;99.90;;;;;;5034807;28;20252;-72
2023/08/23 08:27:45;;;;;;;5.85;4.63;;;25.80;99.90;;;;;;5034557;28;20284;-73
2023/08/23 08:30:13;;;;;;;7.15;5.05;;;25.60;99.90;;;;;;5034509;28;20244;-73
2023/08/23 08:32:40;;;;;;;6.05;4.50;;;25.60;99.90;;;;;;5043346;28;20239;-73
2023/08/23 08:35:07;;;;;;;4.47;4.07;;;25.70;99.90;;;;;;5054150;28;20718;-73
2023/08/23 08:37:34;;;;;;;6.00;4.20;;;25.80;99.90;;;;;;5054093;28;20206;-72
2023/08/23 08:40:00;;;;;;;6.82;4.40;;;25.80;99.90;;;;;;5054482;28;20701;-72
2023/08/23 08:42:29;;;;;;;10.52;5.47;;;26.00;99.90;;;;;;5054480;28;20202;-72
2023/08/23 08:44:55;;;;;;;6.13;4.95;;;26.30;99.90;;;;;;5054354;28;20645;-72
2023/08/23 08:47:24;;;;;;;6.45;5.22;;;26.40;99.90;;;;;;5054303;28;20228;-72
2023/08/23 08:49:51;;;;;;;5.88;4.93;;;26.50;99.90;;;;;;5053949;28;20205;-72
2023/08/23 08:52:21;;;;;;;8.30;4.88;;;27.00;99.90;;;;;;5053996;28;20202;-73
2023/08/23 08:54:50;;;;;;;6.43;5.00;;;27.20;99.90;;;;;;5054187;28;20198;-72
2023/08/23 08:57:17;;;;;;;8.07;5.20;;;27.40;99.90;;;;;;5054075;28;20198;-72
2023/08/23 08:59:46;;;;;;;7.60;4.82;;;27.30;99.90;;;;;;5053844;28;20237;-72
2023/08/23 09:02:16;;;;;;;7.85;5.20;;;27.30;99.90;;;;;;5053881;28;20206;-72
2023/08/23 09:04:46;;;;;;;8.93;5.35;;;27.50;99.90;;;;;;5053773;28;20240;-72
2023/08/23 09:07:13;;;;;;;6.35;5.25;;;27.40;99.90;;;;;;5053931;28;20561;-73
2023/08/23 09:09:41;;;;;;;7.13;5.50;;;27.60;99.90;;;;;;5053864;28;20252;-72
2023/08/23 09:12:08;;;;;;;9.27;5.10;;;27.60;99.90;;;;;;5053810;28;20198;-72
2023/08/23 09:14:35;;;;;;;8.57;5.13;;;28.00;99.90;;;;;;5053642;28;20311;-72
2023/08/23 09:17:01;;;;;;;9.40;5.35;;;27.70;99.90;;;;;;5053351;28;20248;-72
2023/08/23 09:19:28;;;;;;;9.50;5.60;;;28.10;99.90;;;;;;5053591;28;20233;-72
2023/08/23 09:21:56;;;;;;;7.68;4.80;;;28.30;99.90;;;;;;5053493;28;20271;-72
2023/08/23 09:24:23;;;;;;;6.07;4.97;;;28.30;99.90;;;;;;5053475;28;20201;-72
2023/08/23 09:26:50;;;;;;;5.43;4.93;;;28.20;99.90;;;;;;5053530;28;20244;-72
2023/08/23 09:29:16;;;;;;;5.85;4.95;;;28.20;99.90;;;;;;5053393;28;20280;-72
2023/08/23 09:31:43;;;;;;;6.90;5.35;;;28.30;99.90;;;;;;5053264;28;20198;-72
2023/08/23 09:34:13;;;;;;;7.43;5.20;;;28.90;99.90;;;;;;5053517;28;20256;-72
2023/08/23 09:36:41;;;;;;;7.53;4.90;;;29.00;99.90;;;;;;5053381;28;20205;-72
2023/08/23 09:39:10;;;;;;;5.60;5.10;;;28.40;99.90;;;;;;5053117;28;20225;-73
2023/08/23 09:41:39;;;;;;;5.63;5.10;;;28.80;99.90;;;;;;5053154;28;20697;-72
2023/08/23 09:44:06;;;;;;;7.20;5.03;;;28.70;99.90;;;;;;5053041;28;20198;-72
2023/08/23 09:46:34;;;;;;;6.25;5.05;;;28.70;99.90;;;;;;5053190;28;20198;-72
2023/08/23 09:49:04;;;;;;;7.28;4.63;;;29.20;99.90;;;;;;5053206;28;20224;-72
2023/08/23 09:51:33;;;;;;;10.98;4.70;;;29.20;99.90;;;;;;5053109;28;20197;-72
2023/08/23 09:54:08;;;;;;;7.35;5.07;;;29.70;99.90;;;;;;5052826;28;20197;-72
2023/08/23 09:56:37;;;;;;;7.07;4.70;;;30.00;99.90;;;;;;5052916;28;20201;-72
2023/08/23 09:59:03;;;;;;;8.27;4.68;;;29.90;99.90;;;;;;5053085;28;20225;-72
2023/08/23 10:01:31;;;;;;;5.95;4.50;;;29.80;99.80;;;;;;5053125;28;20198;-73
2023/08/23 10:03:57;;;;;;;6.07;4.35;;;29.70;99.70;;;;;;5053070;28;20197;-72
2023/08/23 10:06:26;;;;;;;6.53;4.50;;;30.00;99.50;;;;;;5052991;28;20484;-72
2023/08/23 10:08:54;;;;;;;6.85;4.38;;;30.10;98.90;;;;;;5052785;28;20653;-72
2023/08/23 10:11:21;;;;;;;6.15;3.95;;;30.50;98.20;;;;;;5052773;28;20198;-73
2023/08/23 10:13:52;;;;;;;7.72;4.50;;;31.30;97.80;;;;;;5052986;28;20593;-72
2023/08/23 10:16:21;;;;;;;7.10;4.45;;;30.70;97.40;;;;;;5052839;28;20612;-73
2023/08/23 10:18:48;;;;;;;9.07;4.47;;;30.20;97.90;;;;;;5052628;28;20221;-72
2023/08/23 10:21:16;;;;;;;8.27;4.25;;;30.70;97.70;;;;;;5052630;28;20264;-73
2023/08/23 10:23:43;;;;;;;5.50;4.05;;;31.50;97.30;;;;;;5052533;28;20205;-72
2023/08/23 10:26:18;;;;;;;6.63;4.00;;;31.30;96.40;;;;;;5052838;28;20263;-73
2023/08/23 10:28:50;;;;;;;7.13;4.00;;;31.30;95.80;;;;;;5054702;28;20208;-73
2023/08/23 10:31:22;;;;;;;7.53;4.25;;;32.00;95.70;;;;;;5059192;28;20664;-73
2023/08/23 10:33:55;;;;;;;6.28;4.05;;;32.20;94.90;;;;;;5058622;28;20201;-73
2023/08/23 10:36:24;;;;;;;6.35;3.70;;;33.30;94.60;;;;;;5058299;28;20197;-73
2023/08/23 10:38:50;;;;;;;5.93;3.83;;;34.40;92.30;;;;;;5059215;28;20224;-73
2023/08/23 10:41:18;;;;;;;5.05;3.55;;;34.40;91.20;;;;;;5058880;28;20225;-73
2023/08/23 10:43:47;;;;;;;8.57;4.07;;;34.90;90.60;;;;;;5059162;28;20203;-73
2023/08/23 10:46:17;;;;;;;4.68;3.63;;;34.70;88.20;;;;;;5059062;28;20222;-73
2023/08/23 10:48:45;;;;;;;5.90;4.07;;;33.90;90.30;;;;;;5059357;28;20192;-73
2023/08/23 10:51:12;;;;;;;6.22;4.07;;;32.80;91.00;;;;;;5059308;28;20254;-73
2023/08/23 10:53:41;;;;;;;5.93;4.30;;;33.20;90.80;;;;;;5059249;28;20319;-73
2023/08/23 10:56:09;;;;;;;7.28;4.13;;;31.70;90.80;;;;;;5059239;28;20624;-72
2023/08/23 10:58:37;;;;;;;4.30;3.90;;;31.80;90.70;;;;;;5058880;28;20267;-73
2023/08/23 11:01:04;;;;;;;6.25;4.20;;;33.00;90.30;;;;;;5058955;28;20247;-73
2023/08/23 11:03:34;;;;;;;7.72;3.80;;;33.80;88.50;;;;;;5059021;28;20197;-73
2023/08/23 11:06:01;;;;;;;5.93;3.90;;;35.40;85.00;;;;;;5059202;28;20208;-73
2023/08/23 11:08:28;;;;;;;4.43;3.83;;;36.10;83.40;;;;;;5059061;28;20604;-73
2023/08/23 11:10:54;;;;;;;6.10;3.53;;;36.80;80.30;;;;;;5059342;28;20203;-73
2023/08/23 11:13:21;;;;;;;3.92;3.53;;;37.80;77.50;;;;;;5058956;28;20201;-73
2023/08/23 11:15:48;;;;;;;6.00;3.63;;;38.20;73.00;;;;;;5058894;28;20250;-73
2023/08/23 11:18:15;;;;;;;4.35;3.38;;;39.00;71.10;;;;;;5058929;28;20201;-73
2023/08/23 11:20:43;;;;;;;5.63;3.30;;;39.40;66.80;;;;;;5058887;28;20315;-73
2023/08/23 11:23:10;;;;;;;6.45;3.20;;;37.40;66.30;;;;;;5058744;28;20200;-73
2023/08/23 11:25:37;;;;;;;3.92;3.25;;;38.60;66.50;;;;;;5058755;28;20200;-73
2023/08/23 11:28:05;;;;;;;4.90;3.65;;;37.50;64.70;;;;;;5058559;28;20197;-73
2023/08/23 11:30:32;;;;;;;8.63;3.80;;;37.20;66.20;;;;;;5058740;28;20568;-73
2023/08/23 11:32:59;;;;;;;6.97;3.70;;;36.60;64.90;;;;;;5058977;28;20262;-73
2023/08/23 11:35:26;;;;;;;4.57;3.88;;;36.60;66.60;;;;;;5058829;28;20267;-73
2023/08/23 11:37:55;;;;;;;8.35;3.85;;;35.30;66.20;;;;;;5058737;28;20193;-73
2023/08/23 11:40:23;;;;;;;5.65;4.22;;;35.50;66.30;;;;;;5057436;28;20750;-73
2023/08/23 11:42:50;;;;;;;5.70;4.15;;;34.90;68.40;;;;;;5055466;28;20722;-73
2023/08/23 11:45:16;;;;;;;14.48;4.10;;;34.80;68.30;;;;;;5055704;28;20201;-73
2023/08/23 11:47:43;;;;;;;8.82;4.10;;;35.20;67.10;;;;;;5055307;28;20637;-73
2023/08/23 11:50:10;;;;;;;4.40;3.63;;;35.70;66.80;;;;;;5055880;28;20197;-73
2023/08/23 11:52:37;;;;;;;4.85;3.45;;;36.40;66.20;;;;;;5055235;28;20660;-73
2023/08/23 11:55:06;;;;;;;6.25;3.90;;;37.10;66.30;;;;;;5055358;28;20193;-73
2023/08/23 11:57:34;;;;;;;7.75;3.97;;;36.20;64.50;;;;;;5055251;28;20209;-73
2023/08/23 12:00:00;;;;;;;6.40;3.90;;;36.50;65.30;;;;;;5055266;28;20229;-72
2023/08/23 12:02:27;;;;;;;5.45;3.70;;;34.40;65.30;;;;;;5055238;28;20251;-73
2023/08/23 12:04:54;;;;;;;4.47;4.05;;;35.40;66.00;;;;;;5055386;28;20201;-73
2023/08/23 12:07:21;;;;;;;8.15;4.10;;;35.40;65.00;;;;;;5055202;28;20204;-73
2023/08/23 12:09:48;;;;;;;4.07;3.60;;;35.20;65.20;;;;;;5054939;28;20201;-73
2023/08/23 12:12:16;;;;;;;9.68;3.92;;;36.70;64.20;;;;;;5054855;28;20205;-73
2023/08/23 12:14:42;;;;;;;5.68;3.60;;;36.80;62.50;;;;;;5055146;28;20201;-73
2023/08/23 12:17:09;;;;;;;5.75;3.33;;;38.90;60.80;;;;;;5054970;28;20201;-73
2023/08/23 12:19:36;;;;;;;5.68;3.45;;;40.10;58.60;;;;;;5054793;28;20291;-73
2023/08/23 12:22:06;;;;;;;6.68;3.90;;;40.80;57.00;;;;;;5054845;28;20255;-73
2023/08/23 12:24:32;;;;;;;7.15;3.80;;;41.30;55.30;;;;;;5054895;28;20556;-73
2023/08/23 12:27:00;;;;;;;4.30;3.38;;;38.70;55.90;;;;;;5054801;28;20254;-73
2023/08/23 12:29:28;;;;;;;10.40;3.55;;;38.40;55.80;;;;;;5054771;28;20197;-73
2023/08/23 12:31:54;;;;;;;5.43;3.60;;;37.50;56.80;;;;;;5054625;28;20201;-73
2023/08/23 12:34:21;;;;;;;5.57;3.63;;;38.20;56.50;;;;;;5054571;28;20255;-73
2023/08/23 12:36:48;;;;;;;5.93;4.22;;;38.60;56.00;;;;;;5054529;28;20201;-73